Time;durP1;ratioP1;P1;durP2;ratioP2;P2;SDS_P1;SDS_P2;PMS_P1;PMS_P2;Temp;Humidity;BMP_temperature;BMP_pressure;BME280_temperature;BME280_humidity;BME280_pressure;Samples;Min_cycle;Max_cycle;Signal;HPM_P1;HPM_P2
2023/07/18 00:00:59;;;;;;;4.68;2.08;;;17.50;99.90;;;;;;5051724;28;20229;-57
2023/07/18 00:03:28;;;;;;;4.63;2.10;;;17.50;99.90;;;;;;5051780;28;20222;-59
2023/07/18 00:05:55;;;;;;;5.28;2.00;;;17.50;99.90;;;;;;5051319;28;20554;-59
2023/07/18 00:08:21;;;;;;;2.75;1.65;;;17.40;99.90;;;;;;5051651;28;20259;-58
2023/07/18 00:10:48;;;;;;;6.03;2.00;;;17.30;99.90;;;;;;5051396;28;20306;-58
2023/07/18 00:13:15;;;;;;;5.32;1.90;;;17.20;99.90;;;;;;5051417;28;20232;-58
2023/07/18 00:15:44;;;;;;;4.70;1.85;;;17.20;99.90;;;;;;5051342;28;20237;-58
2023/07/18 00:18:11;;;;;;;2.55;1.90;;;17.10;99.90;;;;;;5051475;28;20233;-57
2023/07/18 00:20:38;;;;;;;4.05;2.00;;;17.10;99.90;;;;;;5072699;22;21208;-57
2023/07/18 00:23:04;;;;;;;2.75;1.83;;;17.00;99.90;;;;;;5063058;28;20208;-55
2023/07/18 00:25:31;;;;;;;4.07;1.80;;;17.00;99.90;;;;;;5071639;28;20582;-56
2023/07/18 00:27:58;;;;;;;5.78;1.88;;;17.00;99.90;;;;;;5071323;28;20212;-56
2023/07/18 00:30:26;;;;;;;4.10;1.80;;;16.90;99.90;;;;;;5071129;28;20211;-55
2023/07/18 00:32:55;;;;;;;3.40;1.73;;;16.80;99.90;;;;;;5071471;28;20227;-55
2023/07/18 00:35:22;;;;;;;5.63;1.73;;;16.70;99.90;;;;;;5071515;28;20208;-56
2023/07/18 00:37:49;;;;;;;4.10;2.00;;;16.70;99.90;;;;;;5071044;28;20201;-55
2023/07/18 00:40:16;;;;;;;5.30;1.80;;;16.70;99.90;;;;;;5071156;28;20208;-56
2023/07/18 00:42:45;;;;;;;4.65;2.03;;;16.60;99.90;;;;;;5071339;28;20205;-55
2023/07/18 00:45:13;;;;;;;2.83;1.75;;;16.60;99.90;;;;;;5071502;28;20260;-56
2023/07/18 00:47:42;;;;;;;3.30;1.90;;;16.50;99.90;;;;;;5071077;28;20201;-58
2023/07/18 00:50:12;;;;;;;3.25;1.90;;;16.50;99.90;;;;;;5072646;28;20204;-56
2023/07/18 00:52:43;;;;;;;4.50;1.58;;;16.50;99.90;;;;;;5075509;28;20224;-56
2023/07/18 00:55:11;;;;;;;3.00;2.05;;;16.50;99.90;;;;;;5075392;28;20196;-56
2023/07/18 00:57:39;;;;;;;4.00;1.88;;;16.50;99.90;;;;;;5074768;28;20676;-56
2023/07/18 01:00:11;;;;;;;3.75;1.65;;;16.40;99.90;;;;;;5075398;28;20209;-56
2023/07/18 01:02:38;;;;;;;3.42;1.90;;;16.50;99.90;;;;;;5075228;28;20645;-56
2023/07/18 01:05:06;;;;;;;1.95;1.63;;;16.40;99.90;;;;;;5075033;28;20595;-57
2023/07/18 01:07:35;;;;;;;3.90;1.90;;;16.40;99.90;;;;;;5074765;28;20688;-56
2023/07/18 01:10:23;;;;;;;4.35;1.88;;;16.40;99.90;;;;;;5074837;28;20676;-55
2023/07/18 01:12:50;;;;;;;4.35;1.67;;;16.50;99.90;;;;;;5075088;28;20200;-56
2023/07/18 01:15:17;;;;;;;5.80;1.92;;;16.40;99.90;;;;;;5074903;28;20208;-55
2023/07/18 01:17:45;;;;;;;2.65;1.50;;;16.30;99.90;;;;;;5074696;28;20650;-56
2023/07/18 01:20:15;;;;;;;2.67;1.80;;;16.30;99.90;;;;;;5074648;28;20598;-56
2023/07/18 01:22:44;;;;;;;6.88;2.13;;;16.30;99.90;;;;;;5074741;28;20205;-56
2023/07/18 01:25:14;;;;;;;3.95;2.00;;;16.20;99.90;;;;;;5074612;28;20232;-56
2023/07/18 01:27:41;;;;;;;3.38;1.80;;;16.30;99.90;;;;;;5074331;28;20738;-56
2023/07/18 01:30:09;;;;;;;7.25;2.00;;;16.20;99.90;;;;;;5074567;28;20204;-56
2023/07/18 01:32:35;;;;;;;6.88;1.92;;;16.10;99.90;;;;;;5074547;28;20235;-56
2023/07/18 01:35:05;;;;;;;3.88;1.70;;;16.10;99.90;;;;;;5074211;28;20688;-55
2023/07/18 01:37:32;;;;;;;5.35;2.33;;;16.00;99.90;;;;;;5074203;28;20338;-55
2023/07/18 01:40:00;;;;;;;3.63;2.05;;;16.10;99.90;;;;;;5074660;28;20208;-54
2023/07/18 01:42:27;;;;;;;2.70;1.88;;;16.00;99.90;;;;;;5074293;28;20231;-56
2023/07/18 01:44:54;;;;;;;3.00;1.90;;;16.00;99.90;;;;;;5074312;28;20252;-55
2023/07/18 01:47:21;;;;;;;1.83;1.60;;;15.90;99.90;;;;;;5073849;28;20208;-56
2023/07/18 01:49:48;;;;;;;2.67;1.70;;;15.90;99.90;;;;;;5074442;28;20201;-56
2023/07/18 01:52:14;;;;;;;4.20;2.10;;;15.90;99.90;;;;;;5074213;28;20247;-57
2023/07/18 01:54:41;;;;;;;2.08;1.48;;;15.90;99.90;;;;;;5074272;28;20212;-57
2023/07/18 01:57:09;;;;;;;3.60;1.60;;;15.90;99.90;;;;;;5073746;28;20672;-57
2023/07/18 01:59:36;;;;;;;3.78;1.50;;;15.90;99.90;;;;;;5074003;28;20209;-57
2023/07/18 02:02:06;;;;;;;3.80;1.80;;;15.80;99.90;;;;;;5073822;28;20229;-55
2023/07/18 02:04:33;;;;;;;3.95;1.80;;;15.90;99.90;;;;;;5074058;28;20232;-57
2023/07/18 02:07:00;;;;;;;7.72;1.60;;;15.80;99.90;;;;;;5073832;28;20208;-57
2023/07/18 02:09:27;;;;;;;4.32;1.90;;;15.80;99.90;;;;;;5073987;28;20483;-57
2023/07/18 02:11:54;;;;;;;2.72;1.50;;;15.70;99.90;;;;;;5073777;28;20229;-56
2023/07/18 02:14:22;;;;;;;2.10;1.67;;;15.70;99.90;;;;;;5073838;28;20201;-55
2023/07/18 02:16:49;;;;;;;3.40;1.80;;;15.60;99.90;;;;;;5073452;28;20217;-55
2023/07/18 02:19:16;;;;;;;3.25;1.85;;;15.60;99.90;;;;;;5073959;28;20553;-56
2023/07/18 02:21:42;;;;;;;3.33;1.70;;;15.70;99.90;;;;;;5073676;28;20595;-56
2023/07/18 02:24:10;;;;;;;3.78;1.80;;;15.60;99.90;;;;;;5073622;28;20225;-56
2023/07/18 02:26:38;;;;;;;4.70;1.90;;;15.60;99.90;;;;;;5073604;28;20251;-56
2023/07/18 02:29:04;;;;;;;4.05;1.77;;;15.50;99.90;;;;;;5073572;28;20259;-55
2023/07/18 02:31:32;;;;;;;2.90;1.42;;;15.50;99.90;;;;;;5073567;28;20228;-57
2023/07/18 02:33:59;;;;;;;7.50;2.30;;;15.40;99.90;;;;;;5073637;28;20236;-56
2023/07/18 02:36:26;;;;;;;3.45;1.80;;;15.30;99.90;;;;;;5073164;28;20578;-56
2023/07/18 02:38:52;;;;;;;3.60;1.92;;;15.40;99.90;;;;;;5073462;28;20278;-56
2023/07/18 02:41:19;;;;;;;2.97;1.90;;;15.40;99.90;;;;;;5073167;28;20252;-55
2023/07/18 02:43:46;;;;;;;5.13;2.20;;;15.40;99.90;;;;;;5073208;28;20228;-55
2023/07/18 02:46:12;;;;;;;3.90;2.43;;;15.50;99.90;;;;;;5073102;28;20290;-56
2023/07/18 02:48:41;;;;;;;4.30;1.73;;;15.40;99.90;;;;;;5073100;28;20258;-56
2023/07/18 02:51:08;;;;;;;7.57;1.88;;;15.40;99.90;;;;;;5073185;28;20229;-56
2023/07/18 02:53:35;;;;;;;3.87;1.70;;;15.40;99.90;;;;;;5073120;28;20295;-55
2023/07/18 02:56:01;;;;;;;5.18;2.00;;;15.30;99.90;;;;;;5073173;28;20675;-57
2023/07/18 02:58:28;;;;;;;8.40;1.98;;;15.30;99.90;;;;;;5073118;28;20205;-55
2023/07/18 03:00:55;;;;;;;5.30;2.20;;;15.20;99.90;;;;;;5072882;28;20232;-56
2023/07/18 03:03:22;;;;;;;5.72;1.98;;;15.30;99.90;;;;;;5073009;28;20212;-56
2023/07/18 03:05:52;;;;;;;4.85;2.00;;;15.30;99.90;;;;;;5072611;28;20224;-56
2023/07/18 03:08:19;;;;;;;3.28;1.70;;;15.40;99.90;;;;;;5072816;28;20204;-57
2023/07/18 03:10:46;;;;;;;2.70;1.65;;;15.50;99.90;;;;;;5072372;28;20260;-56
2023/07/18 03:13:13;;;;;;;2.93;1.80;;;15.60;99.90;;;;;;5072336;28;20204;-55
2023/07/18 03:15:40;;;;;;;3.42;1.90;;;15.60;99.90;;;;;;5072595;28;20295;-55
2023/07/18 03:18:07;;;;;;;3.60;1.83;;;15.60;99.90;;;;;;5072484;28;20219;-56
2023/07/18 03:20:34;;;;;;;4.63;1.65;;;15.50;99.90;;;;;;5072080;28;20212;-56
2023/07/18 03:23:02;;;;;;;2.70;1.88;;;15.50;99.90;;;;;;5072168;28;20627;-54
2023/07/18 03:25:29;;;;;;;4.03;1.85;;;15.30;99.90;;;;;;5072155;28;20225;-56
2023/07/18 03:27:56;;;;;;;3.70;1.70;;;15.30;99.90;;;;;;5071896;28;20209;-56
2023/07/18 03:30:23;;;;;;;5.10;2.10;;;15.20;99.90;;;;;;5072231;28;20209;-56
2023/07/18 03:32:51;;;;;;;4.20;1.90;;;15.30;99.90;;;;;;5072267;28;20201;-56
2023/07/18 03:35:18;;;;;;;5.23;2.03;;;15.20;99.90;;;;;;5072036;28;20259;-56
2023/07/18 03:37:44;;;;;;;3.20;1.93;;;15.20;99.90;;;;;;5071680;28;20282;-55
2023/07/18 03:40:16;;;;;;;3.35;2.20;;;15.30;99.90;;;;;;5071692;28;20680;-55
2023/07/18 03:42:43;;;;;;;2.75;2.20;;;15.30;99.90;;;;;;5072087;28;20213;-56
2023/07/18 03:45:13;;;;;;;3.70;2.23;;;15.20;99.90;;;;;;5071705;28;20256;-56
2023/07/18 03:47:40;;;;;;;4.47;2.30;;;15.30;99.90;;;;;;5071474;28;20672;-55
2023/07/18 03:50:11;;;;;;;9.60;4.97;;;15.30;99.90;;;;;;5071646;28;20276;-56
2023/07/18 03:52:38;;;;;;;3.83;2.07;;;15.40;99.90;;;;;;5071750;28;20303;-56
2023/07/18 03:55:06;;;;;;;16.08;2.42;;;15.40;99.90;;;;;;5071868;28;20207;-55
2023/07/18 03:57:34;;;;;;;5.50;1.93;;;15.50;99.90;;;;;;5071362;28;20672;-56
2023/07/18 04:00:13;;;;;;;2.33;1.80;;;15.50;99.90;;;;;;5071411;28;20667;-56
2023/07/18 04:02:40;;;;;;;5.63;2.17;;;15.50;99.90;;;;;;5071257;28;20308;-54
2023/07/18 04:05:07;;;;;;;6.57;2.35;;;15.50;99.90;;;;;;5071368;28;20698;-55
2023/07/18 04:07:34;;;;;;;5.05;2.90;;;15.40;99.90;;;;;;5071440;28;20201;-54
2023/07/18 04:10:01;;;;;;;3.72;2.13;;;15.40;99.90;;;;;;5071376;28;20261;-55
2023/07/18 04:12:28;;;;;;;3.45;2.30;;;15.50;99.90;;;;;;5072160;28;20577;-55
2023/07/18 04:14:56;;;;;;;3.15;2.00;;;15.50;99.90;;;;;;5071433;28;20699;-55
2023/07/18 04:17:24;;;;;;;4.25;1.90;;;15.50;99.90;;;;;;5070947;28;20573;-55
2023/07/18 04:19:52;;;;;;;4.18;1.80;;;15.60;99.90;;;;;;5071354;28;20211;-55
2023/07/18 04:22:19;;;;;;;4.10;1.90;;;15.60;99.90;;;;;;5071066;28;20392;-56
2023/07/18 04:24:46;;;;;;;6.47;2.30;;;15.50;99.90;;;;;;5070309;28;20605;-56
2023/07/18 04:27:13;;;;;;;5.07;2.10;;;15.50;99.90;;;;;;5070953;28;20205;-57
2023/07/18 04:29:40;;;;;;;3.40;2.00;;;15.60;99.90;;;;;;5071067;28;20627;-57
2023/07/18 04:32:08;;;;;;;5.33;2.50;;;15.70;99.90;;;;;;5070933;28;20229;-55
2023/07/18 04:34:36;;;;;;;6.22;2.72;;;15.80;99.90;;;;;;5071285;28;20201;-54
2023/07/18 04:37:03;;;;;;;3.65;2.10;;;15.90;99.90;;;;;;5070736;28;20284;-55
2023/07/18 04:39:30;;;;;;;4.55;2.72;;;15.90;99.90;;;;;;5071578;28;20212;-54
2023/07/18 04:41:57;;;;;;;4.10;2.00;;;16.00;99.90;;;;;;5070940;28;20252;-55
2023/07/18 04:44:24;;;;;;;6.03;2.78;;;16.20;99.90;;;;;;5070824;28;20668;-55
2023/07/18 04:46:52;;;;;;;5.13;2.38;;;16.20;99.90;;;;;;5070882;28;20229;-55
2023/07/18 04:49:22;;;;;;;2.55;2.00;;;16.30;99.90;;;;;;5071103;28;20248;-54
2023/07/18 04:51:51;;;;;;;5.43;2.30;;;16.50;99.90;;;;;;5071126;28;20232;-55
2023/07/18 04:54:18;;;;;;;2.17;1.77;;;16.60;99.90;;;;;;5070999;28;20208;-55
2023/07/18 04:56:44;;;;;;;4.50;2.28;;;16.70;99.90;;;;;;5070450;28;20668;-55
2023/07/18 04:59:11;;;;;;;3.88;1.90;;;16.80;99.90;;;;;;5070738;28;20209;-54
2023/07/18 05:01:40;;;;;;;3.97;2.30;;;16.80;99.90;;;;;;5071151;28;20616;-56
2023/07/18 05:04:07;;;;;;;4.40;2.38;;;16.90;99.90;;;;;;5070848;28;20250;-54
2023/07/18 05:06:35;;;;;;;3.57;2.07;;;17.00;99.90;;;;;;5070251;28;20749;-54
2023/07/18 05:09:03;;;;;;;4.22;2.00;;;17.10;99.90;;;;;;5070546;28;20205;-55
2023/07/18 05:11:30;;;;;;;5.30;1.90;;;17.20;99.90;;;;;;5070307;28;20228;-55
2023/07/18 05:13:56;;;;;;;7.35;6.15;;;17.40;99.90;;;;;;5070650;28;20205;-56
2023/07/18 05:16:23;;;;;;;3.72;2.22;;;17.60;99.90;;;;;;5070524;28;20205;-56
2023/07/18 05:18:50;;;;;;;7.18;2.40;;;17.80;99.90;;;;;;5070622;28;20219;-55
2023/07/18 05:21:16;;;;;;;5.65;2.10;;;18.00;99.90;;;;;;5070399;28;20331;-56
2023/07/18 05:23:45;;;;;;;5.03;2.05;;;18.20;99.90;;;;;;5070590;28;20533;-55
2023/07/18 05:26:11;;;;;;;4.13;2.38;;;18.70;99.90;;;;;;5070206;28;20311;-55
2023/07/18 05:28:38;;;;;;;5.03;1.80;;;19.80;99.90;;;;;;5070425;28;20290;-54
2023/07/18 05:31:08;;;;;;;3.25;1.75;;;21.30;99.90;;;;;;5070561;28;20224;-55
2023/07/18 05:33:34;;;;;;;2.38;1.67;;;22.60;99.90;;;;;;5070549;28;20229;-54
2023/07/18 05:36:01;;;;;;;7.18;2.00;;;22.70;99.90;;;;;;5071419;28;20251;-54
2023/07/18 05:38:28;;;;;;;3.08;1.70;;;22.50;99.90;;;;;;5074097;28;20228;-54
2023/07/18 05:40:56;;;;;;;4.20;1.88;;;22.50;99.90;;;;;;5073949;28;20282;-57
2023/07/18 05:43:23;;;;;;;3.92;1.98;;;23.70;99.90;;;;;;5074387;28;20211;-59
2023/07/18 05:45:50;;;;;;;3.75;1.95;;;24.80;99.90;;;;;;5073849;28;20689;-62
2023/07/18 05:48:17;;;;;;;4.10;1.80;;;25.70;98.20;;;;;;5074137;28;20208;-60
2023/07/18 05:50:43;;;;;;;5.85;2.22;;;26.70;95.20;;;;;;5073906;28;20716;-60
2023/07/18 05:53:10;;;;;;;4.97;2.30;;;27.90;91.70;;;;;;5073906;28;20274;-61
2023/07/18 05:55:38;;;;;;;4.25;1.80;;;29.30;87.00;;;;;;5074212;28;20205;-61
2023/07/18 05:58:06;;;;;;;6.22;2.22;;;30.80;77.30;;;;;;5073920;28;20209;-58
2023/07/18 06:00:33;;;;;;;3.55;1.60;;;32.10;69.20;;;;;;5073832;28;20284;-59
2023/07/18 06:03:00;;;;;;;2.90;1.80;;;33.10;64.60;;;;;;5073690;28;20216;-60
2023/07/18 06:05:26;;;;;;;5.57;2.05;;;34.10;59.20;;;;;;5073869;28;20224;-60
2023/07/18 06:07:53;;;;;;;7.43;2.58;;;34.80;57.50;;;;;;5073487;28;20216;-64
2023/07/18 06:10:20;;;;;;;2.80;2.00;;;35.30;55.10;;;;;;5074194;28;20215;-62
2023/07/18 06:12:47;;;;;;;3.42;1.80;;;35.80;54.50;;;;;;5073984;28;20211;-57
2023/07/18 06:15:15;;;;;;;4.80;2.15;;;36.30;52.30;;;;;;5073482;28;20212;-59
2023/07/18 06:17:41;;;;;;;5.45;1.70;;;36.80;50.40;;;;;;5073364;28;20200;-60
2023/07/18 06:20:12;;;;;;;6.05;1.73;;;37.10;49.10;;;;;;5073415;28;20212;-59
2023/07/18 06:22:39;;;;;;;4.72;2.30;;;37.40;48.70;;;;;;5061515;22;20238;-62
2023/07/18 06:25:07;;;;;;;3.92;1.90;;;37.50;47.50;;;;;;5033737;28;20202;-61
2023/07/18 06:27:34;;;;;;;4.22;1.90;;;37.50;47.50;;;;;;5034216;28;20336;-63
2023/07/18 06:30:00;;;;;;;4.57;1.90;;;37.60;47.30;;;;;;5034071;28;20206;-62
2023/07/18 06:32:28;;;;;;;3.05;1.90;;;37.70;46.60;;;;;;5033866;28;20222;-62
2023/07/18 06:34:55;;;;;;;4.10;1.90;;;37.90;46.60;;;;;;5032956;28;20229;-63
2023/07/18 06:37:22;;;;;;;4.57;1.92;;;38.40;45.50;;;;;;5033672;28;20202;-60
2023/07/18 06:39:50;;;;;;;5.57;1.60;;;38.80;44.20;;;;;;5033683;28;20207;-62
2023/07/18 06:42:17;;;;;;;2.72;1.90;;;39.20;43.20;;;;;;5033641;28;20756;-62
2023/07/18 06:44:43;;;;;;;4.57;1.70;;;39.50;41.90;;;;;;5033506;28;20206;-62
2023/07/18 06:47:10;;;;;;;3.75;1.92;;;39.30;41.60;;;;;;5032185;28;20226;-63
2023/07/18 06:49:38;;;;;;;5.07;1.77;;;39.30;42.00;;;;;;5033599;28;20210;-62
2023/07/18 06:52:05;;;;;;;5.68;1.85;;;39.50;41.60;;;;;;5033176;28;20604;-62
2023/07/18 06:54:32;;;;;;;4.72;1.58;;;39.90;41.30;;;;;;5033362;28;20224;-63
2023/07/18 06:57:00;;;;;;;5.47;1.52;;;40.50;40.70;;;;;;5033539;28;20202;-62
2023/07/18 06:59:27;;;;;;;3.38;1.88;;;40.70;39.60;;;;;;5033379;28;20635;-62
2023/07/18 07:01:54;;;;;;;4.72;1.83;;;40.60;39.80;;;;;;5033508;28;20317;-63
2023/07/18 07:04:21;;;;;;;3.15;1.85;;;40.70;40.20;;;;;;5033725;28;20214;-63
2023/07/18 07:06:49;;;;;;;3.35;1.80;;;40.80;39.70;;;;;;5033232;28;20225;-63
2023/07/18 07:09:15;;;;;;;5.30;1.98;;;41.40;38.90;;;;;;5033465;28;20213;-63
2023/07/18 07:11:43;;;;;;;2.83;1.60;;;41.80;38.50;;;;;;5033655;28;20721;-62
2023/07/18 07:14:11;;;;;;;2.60;1.65;;;42.40;37.50;;;;;;5032711;28;20210;-62
2023/07/18 07:16:38;;;;;;;3.70;1.70;;;42.80;37.30;;;;;;5032595;28;20293;-61
2023/07/18 07:19:05;;;;;;;2.63;1.70;;;43.20;36.20;;;;;;5033324;28;20269;-62
2023/07/18 07:21:32;;;;;;;4.13;1.70;;;43.20;35.70;;;;;;5033483;28;20419;-64
2023/07/18 07:24:00;;;;;;;3.03;1.70;;;42.80;35.90;;;;;;5032909;28;20740;-63
2023/07/18 07:26:27;;;;;;;2.92;1.70;;;42.70;35.90;;;;;;5032506;28;20252;-62
2023/07/18 07:28:54;;;;;;;3.88;1.67;;;42.90;36.00;;;;;;5032505;28;20205;-62
2023/07/18 07:31:20;;;;;;;2.58;1.52;;;42.90;36.00;;;;;;5032561;28;20593;-61
2023/07/18 07:33:47;;;;;;;4.03;1.88;;;43.40;35.40;;;;;;5032269;28;20233;-62
2023/07/18 07:36:15;;;;;;;4.22;1.75;;;43.90;34.70;;;;;;5032487;28;20709;-62
2023/07/18 07:38:41;;;;;;;6.18;1.52;;;44.30;34.40;;;;;;5032656;28;20623;-63
2023/07/18 07:41:09;;;;;;;3.70;1.80;;;44.80;33.90;;;;;;5032367;28;20221;-63
2023/07/18 07:43:36;;;;;;;3.72;1.63;;;45.10;33.40;;;;;;5032298;28;20208;-62
2023/07/18 07:46:03;;;;;;;2.90;1.45;;;45.40;32.70;;;;;;5021053;28;20572;-63
2023/07/18 07:48:30;;;;;;;2.85;1.45;;;45.90;32.10;;;;;;5012873;28;20532;-65
2023/07/18 07:50:58;;;;;;;3.78;1.70;;;46.20;32.00;;;;;;5012430;28;20233;-61
2023/07/18 07:53:24;;;;;;;4.25;1.60;;;46.60;31.50;;;;;;5012740;28;20713;-66
2023/07/18 07:55:51;;;;;;;2.40;1.52;;;47.00;30.80;;;;;;5012736;28;20309;-65
2023/07/18 07:58:20;;;;;;;4.25;1.55;;;47.00;30.80;;;;;;5012327;28;20242;-59
2023/07/18 08:00:46;;;;;;;2.95;1.48;;;47.00;30.60;;;;;;5012552;28;20210;-64
2023/07/18 08:03:13;;;;;;;3.40;2.60;;;47.00;30.20;;;;;;5012717;28;20226;-65
2023/07/18 08:05:40;;;;;;;3.20;1.60;;;47.30;30.30;;;;;;5012804;28;20232;-63
2023/07/18 08:08:07;;;;;;;3.30;1.38;;;47.40;29.80;;;;;;5012166;28;20217;-65
2023/07/18 08:10:34;;;;;;;2.67;1.42;;;47.30;30.00;;;;;;5012194;28;20241;-64
2023/07/18 08:13:00;;;;;;;2.97;1.50;;;46.90;29.90;;;;;;5012589;28;20217;-66
2023/07/18 08:15:28;;;;;;;1.92;1.40;;;46.50;30.30;;;;;;5012859;28;20210;-65
2023/07/18 08:17:55;;;;;;;3.85;1.50;;;46.10;30.20;;;;;;5023006;28;20237;-66
2023/07/18 08:20:22;;;;;;;2.60;1.40;;;45.80;30.30;;;;;;5025252;28;20206;-65
2023/07/18 08:22:49;;;;;;;3.58;1.55;;;45.50;30.50;;;;;;5026182;28;20241;-65
2023/07/18 08:25:16;;;;;;;5.90;1.58;;;45.30;30.50;;;;;;5018301;28;20247;-64
2023/07/18 08:27:43;;;;;;;3.63;1.65;;;45.20;30.70;;;;;;5017103;28;20202;-64
2023/07/18 08:30:11;;;;;;;3.83;1.50;;;45.10;30.80;;;;;;5013787;28;20214;-65
2023/07/18 08:32:40;;;;;;;3.42;1.58;;;45.00;31.10;;;;;;5012438;28;20312;-64
2023/07/18 08:35:08;;;;;;;3.50;1.60;;;45.00;30.80;;;;;;5011903;28;20681;-62
2023/07/18 08:37:34;;;;;;;2.78;1.45;;;45.10;30.40;;;;;;5012103;28;20226;-64
2023/07/18 08:40:04;;;;;;;2.92;1.65;;;44.90;30.30;;;;;;5011843;28;20206;-65
2023/07/18 08:42:32;;;;;;;6.88;1.48;;;44.40;31.10;;;;;;5012042;28;20385;-64
2023/07/18 08:45:00;;;;;;;3.15;1.35;;;43.60;31.30;;;;;;5012687;28;20344;-64
2023/07/18 08:47:27;;;;;;;2.72;1.45;;;42.30;32.30;;;;;;5012674;28;20666;-64
2023/07/18 08:49:55;;;;;;;2.83;1.40;;;41.60;32.40;;;;;;5013202;28;20281;-65
2023/07/18 08:52:22;;;;;;;3.28;1.27;;;41.00;32.60;;;;;;5012597;28;20714;-63
2023/07/18 08:54:49;;;;;;;2.80;1.23;;;40.00;33.20;;;;;;5013272;28;20298;-64
2023/07/18 08:57:16;;;;;;;2.97;1.42;;;38.60;35.00;;;;;;5013375;28;20738;-65
2023/07/18 08:59:45;;;;;;;2.97;1.42;;;37.30;36.10;;;;;;5013793;28;20531;-65
2023/07/18 09:02:11;;;;;;;2.35;1.73;;;36.00;37.30;;;;;;5013999;28;20310;-66
2023/07/18 09:04:38;;;;;;;2.40;1.52;;;34.80;39.20;;;;;;5012214;28;20237;-66
2023/07/18 09:07:10;;;;;;;3.70;1.60;;;33.80;40.70;;;;;;5011560;28;20465;-66
2023/07/18 09:09:37;;;;;;;2.88;1.58;;;32.90;41.70;;;;;;5011840;28;20207;-66
2023/07/18 09:12:05;;;;;;;3.03;1.63;;;31.90;43.60;;;;;;5014515;28;20226;-65
2023/07/18 09:14:33;;;;;;;4.55;1.42;;;31.00;44.90;;;;;;5016186;28;20203;-64
2023/07/18 09:17:01;;;;;;;3.65;1.70;;;30.40;45.80;;;;;;5015230;28;20233;-66
2023/07/18 09:19:39;;;;;;;4.85;1.42;;;30.00;46.80;;;;;;5015231;28;20298;-69
2023/07/18 09:22:08;;;;;;;4.72;1.50;;;29.70;47.10;;;;;;5015069;28;20238;-69
2023/07/18 09:24:36;;;;;;;3.67;1.67;;;29.50;47.40;;;;;;5015794;28;20207;-67
2023/07/18 09:27:04;;;;;;;2.83;1.48;;;29.20;48.20;;;;;;5015633;28;20203;-68
2023/07/18 09:29:31;;;;;;;5.15;1.70;;;29.00;48.70;;;;;;5015167;28;20214;-67
2023/07/18 09:31:58;;;;;;;4.13;1.70;;;28.90;49.10;;;;;;5014911;28;20322;-68
2023/07/18 09:34:27;;;;;;;3.10;1.77;;;28.70;49.70;;;;;;5015688;28;20207;-68
2023/07/18 09:36:58;;;;;;;5.50;1.70;;;28.70;50.40;;;;;;5015263;28;20234;-65
2023/07/18 09:39:27;;;;;;;3.67;1.70;;;28.50;50.60;;;;;;5015133;28;20639;-68
2023/07/18 09:41:55;;;;;;;3.55;1.83;;;28.40;50.90;;;;;;5008454;28;20243;-70
2023/07/18 09:44:23;;;;;;;1.60;1.48;;;28.40;51.30;;;;;;5014198;28;20265;-67
2023/07/18 09:46:50;;;;;;;4.05;2.05;;;28.50;51.10;;;;;;5014544;28;20486;-67
2023/07/18 09:49:18;;;;;;;3.70;1.60;;;28.50;51.40;;;;;;5015198;28;20207;-68
2023/07/18 09:51:48;;;;;;;4.15;2.08;;;28.60;51.40;;;;;;5014596;28;20245;-66
2023/07/18 09:54:16;;;;;;;5.35;2.00;;;28.70;51.80;;;;;;5014683;28;20679;-67
2023/07/18 09:56:45;;;;;;;3.53;2.30;;;28.80;52.00;;;;;;5023010;28;20275;-64
2023/07/18 09:59:12;;;;;;;4.57;2.00;;;28.90;52.20;;;;;;5033951;28;20210;-64
2023/07/18 10:01:39;;;;;;;3.30;2.63;;;29.10;52.00;;;;;;5034099;28;20230;-63
2023/07/18 10:04:07;;;;;;;6.15;2.58;;;29.20;52.10;;;;;;5034379;28;20224;-63
2023/07/18 10:06:34;;;;;;;3.78;1.80;;;29.40;51.90;;;;;;5034039;28;20618;-63
2023/07/18 10:09:02;;;;;;;3.75;2.15;;;29.60;51.30;;;;;;5034635;28;20205;-68
2023/07/18 10:11:29;;;;;;;5.00;2.50;;;29.80;51.20;;;;;;5022697;28;20233;-68
2023/07/18 10:14:16;;;;;;;6.43;2.80;;;30.30;51.10;;;;;;5014401;28;20215;-68
2023/07/18 10:16:44;;;;;;;4.55;2.20;;;31.00;50.50;;;;;;5014079;28;20245;-66
2023/07/18 10:19:19;;;;;;;6.15;2.50;;;31.50;49.80;;;;;;5014448;28;20211;-66
2023/07/18 10:21:46;;;;;;;5.15;2.58;;;31.80;49.40;;;;;;5013407;28;20234;-67
2023/07/18 10:24:28;;;;;;;3.70;2.47;;;32.20;49.40;;;;;;5013310;28;20644;-69
2023/07/18 10:26:58;;;;;;;4.82;2.30;;;32.40;48.90;;;;;;5014222;28;20588;-68
2023/07/18 10:29:31;;;;;;;4.85;2.42;;;32.50;48.90;;;;;;5013542;28;20202;-69
2023/07/18 10:31:58;;;;;;;3.25;2.25;;;32.40;48.40;;;;;;5012217;28;20281;-68
2023/07/18 10:34:25;;;;;;;5.13;2.20;;;32.40;48.30;;;;;;5013831;28;20566;-69
2023/07/18 10:36:56;;;;;;;3.00;2.40;;;32.20;48.50;;;;;;5013794;28;20253;-70
2023/07/18 10:39:38;;;;;;;3.88;2.17;;;32.20;48.90;;;;;;5013743;28;20690;-70
2023/07/18 10:42:19;;;;;;;3.40;1.98;;;32.10;49.40;;;;;;5013819;28;20724;-61
2023/07/18 10:44:48;;;;;;;4.07;2.20;;;31.90;49.40;;;;;;5013989;28;20210;-69
2023/07/18 10:47:16;;;;;;;2.95;2.25;;;31.50;50.10;;;;;;5013300;28;20218;-64
2023/07/18 10:49:44;;;;;;;5.43;2.03;;;31.00;51.00;;;;;;5014174;28;20202;-65
2023/07/18 10:52:12;;;;;;;3.05;2.25;;;30.30;52.40;;;;;;5013531;28;20718;-61
2023/07/18 10:54:44;;;;;;;5.57;2.63;;;29.80;53.50;;;;;;5013827;28;20221;-65
2023/07/18 10:57:10;;;;;;;6.60;3.00;;;29.60;53.80;;;;;;5013308;28;20227;-65
2023/07/18 10:59:37;;;;;;;7.78;2.47;;;29.90;53.80;;;;;;5013494;28;20683;-64
2023/07/18 11:02:05;;;;;;;6.47;4.10;;;30.50;53.00;;;;;;5013474;28;20254;-64
2023/07/18 11:04:32;;;;;;;3.22;2.25;;;31.10;52.40;;;;;;5013511;28;20217;-64
2023/07/18 11:06:59;;;;;;;5.35;2.17;;;31.40;50.80;;;;;;5013254;28;20206;-63
2023/07/18 11:09:26;;;;;;;4.65;2.33;;;31.50;51.00;;;;;;5013660;28;20601;-67
2023/07/18 11:11:53;;;;;;;5.13;2.40;;;31.60;50.30;;;;;;5013579;28;20223;-66
2023/07/18 11:14:20;;;;;;;4.43;2.25;;;31.80;50.00;;;;;;5013137;28;20207;-65
2023/07/18 11:16:47;;;;;;;4.35;2.30;;;32.20;49.90;;;;;;5010774;28;20207;-64
2023/07/18 11:19:15;;;;;;;3.25;2.33;;;32.60;49.70;;;;;;5012818;28;20632;-62
2023/07/18 11:21:43;;;;;;;6.25;2.50;;;32.90;49.30;;;;;;5013102;28;20239;-63
2023/07/18 11:24:09;;;;;;;4.88;2.65;;;33.30;48.70;;;;;;5012891;28;20207;-64
2023/07/18 11:26:36;;;;;;;4.00;2.17;;;33.40;48.60;;;;;;5009479;28;20229;-66
2023/07/18 11:29:05;;;;;;;5.55;2.17;;;33.30;48.90;;;;;;5002578;28;20746;-64
2023/07/18 11:31:33;;;;;;;3.00;2.20;;;33.10;49.30;;;;;;5011751;28;20438;-65
2023/07/18 11:34:01;;;;;;;3.35;2.45;;;32.60;49.80;;;;;;5012475;28;20218;-66
2023/07/18 11:36:33;;;;;;;4.50;2.15;;;32.20;50.40;;;;;;5012412;28;20211;-63
2023/07/18 11:39:01;;;;;;;3.75;2.28;;;31.70;50.90;;;;;;5012717;28;20227;-63
2023/07/18 11:41:34;;;;;;;5.15;2.70;;;31.40;51.80;;;;;;5012492;28;20237;-65
2023/07/18 11:44:02;;;;;;;2.80;2.00;;;31.20;52.30;;;;;;5012652;28;20281;-66
2023/07/18 11:46:39;;;;;;;8.93;2.65;;;31.00;52.50;;;;;;5012552;28;20214;-62
2023/07/18 11:49:06;;;;;;;2.85;2.22;;;30.80;52.80;;;;;;5013052;28;20203;-64
2023/07/18 11:51:35;;;;;;;3.72;2.40;;;30.60;52.90;;;;;;5012594;28;20715;-62
2023/07/18 11:54:03;;;;;;;5.28;2.25;;;30.40;53.10;;;;;;5012943;28;20207;-64
2023/07/18 11:56:30;;;;;;;8.23;5.30;;;30.30;53.50;;;;;;5010903;28;20211;-64
2023/07/18 11:58:57;;;;;;;4.70;2.80;;;30.20;54.20;;;;;;5013689;28;20227;-62
2023/07/18 12:01:24;;;;;;;4.90;2.70;;;30.10;54.40;;;;;;5014015;28;20230;-63
2023/07/18 12:03:52;;;;;;;3.88;2.13;;;30.00;54.10;;;;;;5012509;28;20260;-63
2023/07/18 12:06:19;;;;;;;5.78;2.33;;;30.10;54.10;;;;;;5011910;28;20207;-63
2023/07/18 12:08:47;;;;;;;4.63;2.33;;;30.20;53.90;;;;;;5012544;28;20247;-62
2023/07/18 12:11:14;;;;;;;4.30;2.10;;;30.40;53.70;;;;;;5012059;28;20745;-63
2023/07/18 12:13:43;;;;;;;4.93;2.40;;;30.60;53.70;;;;;;5011486;28;20217;-61
2023/07/18 12:16:10;;;;;;;5.13;2.60;;;30.90;53.20;;;;;;5010405;28;20211;-65
2023/07/18 12:18:38;;;;;;;4.63;2.40;;;31.30;52.60;;;;;;5012067;28;20233;-67
2023/07/18 12:21:05;;;;;;;4.28;2.20;;;31.40;52.40;;;;;;5036728;23;20234;-59
2023/07/18 12:23:31;;;;;;;4.30;2.70;;;31.50;52.20;;;;;;5031588;28;20285;-58
2023/07/18 12:26:00;;;;;;;6.88;2.42;;;31.60;52.40;;;;;;5031931;28;20232;-57
2023/07/18 12:28:27;;;;;;;3.20;2.20;;;31.60;52.60;;;;;;5031448;28;20601;-57
2023/07/18 12:30:53;;;;;;;4.38;2.30;;;31.70;52.90;;;;;;5032257;28;20629;-58
2023/07/18 12:33:21;;;;;;;4.45;2.50;;;31.90;52.60;;;;;;5032076;28;20611;-59
2023/07/18 12:35:48;;;;;;;5.68;2.75;;;31.90;52.20;;;;;;5032212;28;20264;-58
2023/07/18 12:38:14;;;;;;;4.75;2.45;;;32.10;52.30;;;;;;5031869;28;20226;-60
2023/07/18 12:40:41;;;;;;;5.78;2.60;;;32.10;51.90;;;;;;5032078;28;20206;-59
2023/07/18 12:43:09;;;;;;;5.93;2.53;;;32.20;52.10;;;;;;5032012;28;20233;-57
2023/07/18 12:45:36;;;;;;;5.15;2.60;;;32.10;52.00;;;;;;5031446;28;20221;-58
2023/07/18 12:48:02;;;;;;;2.80;2.10;;;32.00;52.30;;;;;;5031788;28;20213;-58
2023/07/18 12:50:30;;;;;;;3.10;2.40;;;32.00;52.60;;;;;;5031773;28;20209;-58